Flight Track Log - Related Links

Times and Time Zones

All times are in EDT time to prevent confusion due to time zone crossing. See the XOJ549 flight status page for this flight to view local times or setup timezone preferences in your user account.

Time Position Orientation Groundspeed Altitude Reporting Facility
EDT Latitude Longitude Course Direction KTS MPH feet Rate Location/Type
Sun 03:29:49 PM 39.7167 -86.3167 218° Southwest 160 184 1,600  Level Indianapolis TRACON
Sun 03:30:37 PM 39.6833 -86.3500 218° Southwest 203 234 4,300 3,882 Climbing Indianapolis TRACON
Sun 03:31:14 PM 39.6722 -86.3950 252° West 206 237 7,100 4,000 Climbing Indianapolis Center
Sun 03:32:16 PM 39.6536 -86.4842 255° West 239 275 10,900 3,726 Climbing Indianapolis Center
Sun 03:33:18 PM 39.6489 -86.5897 267° West 285 328 14,800 3,484 Climbing Indianapolis Center
Sun 03:34:20 PM 39.6467 -86.7097 269° West 318 366 18,100 3,097 Climbing Indianapolis Center
Sun 03:35:22 PM 39.6433 -86.8614 268° West 345 397 21,200 2,806 Climbing Indianapolis Center
Sun 03:36:24 PM 39.6411 -86.9922 269° West 360 414 23,900 2,400 Climbing Indianapolis Center
Sun 03:37:27 PM 39.6383 -87.1242 268° West 365 420 26,200 2,032 Climbing Indianapolis Center
Sun 03:38:28 PM 39.6333 -87.2603 267° West 375 432 28,100 1,756 Climbing Indianapolis Center
Sun 03:39:30 PM 39.6308 -87.3989 269° West 384 442 29,800 1,403 Climbing Indianapolis Center
Sun 03:40:32 PM 39.6261 -87.5714 268° West 398 458 31,000 768 Climbing Indianapolis Center
Sun 03:41:35 PM 39.6231 -87.7200 269° West 411 473 31,400 864 Climbing Indianapolis Center
Sun 03:42:37 PM 39.6186 -87.8669 268° West 410 472 32,800 1,694 Climbing Indianapolis Center
Sun 03:43:39 PM 39.6150 -88.0128 268° West 408 470 34,900 1,984 Climbing Indianapolis Center
Sun 03:44:41 PM 39.6108 -88.1506 268° West 392 451 36,900 1,694 Climbing Indianapolis Center
Sun 03:45:43 PM 39.6178 -88.2867 274° West 383 441 38,400 1,403 Climbing Indianapolis Center
Sun 03:46:45 PM 39.6239 -88.4464 273° West 373 429 39,800 1,113 Climbing Indianapolis Center
Sun 03:47:47 PM 39.6306 -88.5792 274° West 372 428 40,700 774 Climbing Indianapolis Center
Sun 03:48:49 PM 39.6336 -88.7150 272° West 376 433 41,400 774 Climbing Indianapolis Center
Sun 03:49:51 PM 39.6394 -88.8475 273° West 373 429 42,300 774 Climbing Indianapolis Center
Sun 03:50:53 PM 39.6447 -88.9814 273° West 373 429 43,000 339 Climbing Indianapolis Center
Sun 03:51:55 PM 39.6483 -89.1431 272° West 374 430 43,000  Level Indianapolis Center
Sun 03:52:57 PM 39.6544 -89.2842 273° West 387 445 43,000  Level Indianapolis Center
Sun 03:53:59 PM 39.6583 -89.4253 272° West 392 451 43,000  Level Indianapolis Center
Sun 03:55:06 PM 39.6636 -89.5825 273° West 396 456 43,000  Level Kansas City Center
Sun 03:56:08 PM 39.6667 -89.7231 272° West 394 453 43,000  Level Kansas City Center
Sun 03:57:10 PM 39.6708 -89.8650 272° West 395 455 43,000  Level Kansas City Center
Sun 03:58:12 PM 39.6747 -90.0078 272° West 396 456 43,000  Level Kansas City Center
Sun 03:59:14 PM 39.6792 -90.1778 272° West 396 456 43,000  Level Kansas City Center
Sun 04:00:16 PM 39.6825 -90.3186 272° West 394 453 43,000  Level Kansas City Center
Sun 04:01:18 PM 39.6858 -90.4617 272° West 397 457 43,000  Level Kansas City Center
Sun 04:02:20 PM 39.6883 -90.6022 271° West 394 453 43,000  Level Kansas City Center
Sun 04:03:23 PM 39.6919 -90.7433 272° West 394 453 43,000  Level Kansas City Center
Sun 04:04:25 PM 39.6944 -90.9111 271° West 391 450 43,000  Level Kansas City Center
Sun 04:05:27 PM 39.6967 -91.0500 271° West 388 447 43,000  Level Kansas City Center
Sun 04:06:29 PM 39.6994 -91.1911 272° West 391 450 43,000  Level Kansas City Center
Sun 04:07:31 PM 39.7008 -91.3308 271° West 397 457 43,000  Level Kansas City Center
Sun 04:08:33 PM 39.7025 -91.4711 271° West 395 455 43,000  Level Kansas City Center
Sun 04:09:35 PM 39.7042 -91.6431 271° West 397 457 43,000  Level Kansas City Center
Sun 04:10:37 PM 39.7056 -91.7847 271° West 397 457 43,000  Level Kansas City Center
Sun 04:11:39 PM 39.7072 -91.9253 271° West 393 452 43,000  Level Kansas City Center
Sun 04:12:41 PM 39.7081 -92.0656 270° West 391 450 43,000  Level Kansas City Center
Sun 04:13:43 PM 39.7094 -92.2075 271° West 393 452 43,000  Level Kansas City Center
Sun 04:14:45 PM 39.7108 -92.3783 271° West 395 455 43,000  Level Kansas City Center
Sun 04:15:47 PM 39.7117 -92.5219 270° West 397 457 43,000  Level Kansas City Center
Sun 04:16:49 PM 39.7117 -92.6633 270° West 395 455 43,000  Level Kansas City Center
Sun 04:17:51 PM 39.7119 -92.8067 270° West 397 457 43,000  Level Kansas City Center
Sun 04:18:53 PM 39.7119 -92.9478 270° West 395 455 43,000  Level Kansas City Center
Sun 04:19:55 PM 39.7114 -93.0872 270° West 389 448 43,000  Level Kansas City Center
Sun 04:20:57 PM 39.7092 -93.2522 269° West 385 443 43,000  Level Kansas City Center
Sun 04:21:59 PM 39.7094 -93.3939 270° West 392 451 43,000  Level Kansas City Center
Sun 04:23:01 PM 39.7103 -93.5378 270° West 398 458 43,000  Level Kansas City Center
Sun 04:24:03 PM 39.7100 -93.6753 270° West 388 447 43,000  Level Kansas City Center
Sun 04:25:05 PM 39.7086 -93.8175 269° West 384 442 43,000  Level Kansas City Center
Sun 04:26:07 PM 39.7078 -93.9744 270° West 388 447 43,000  Level Kansas City Center
Sun 04:27:09 PM 39.7064 -94.1103 269° West 393 452 43,000  Level Kansas City Center
Sun 04:28:11 PM 39.7056 -94.2669 270° West 390 449 43,000  Level Kansas City Center
Sun 04:29:13 PM 39.7036 -94.4033 269° West 395 455 43,000  Level Kansas City Center
Sun 04:30:15 PM 39.7019 -94.5625 269° West 396 456 43,000  Level Kansas City Center
Sun 04:31:17 PM 39.7003 -94.7000 269° West 398 458 43,000  Level Kansas City Center
Sun 04:32:19 PM 39.6986 -94.8592 269° West 396 456 43,000  Level Kansas City Center
Sun 04:33:21 PM 39.6956 -94.9953 268° West 397 457 43,000  Level Kansas City Center
Sun 04:34:24 PM 39.6942 -95.1536 269° West 396 456 43,000  Level Kansas City Center
Sun 04:35:26 PM 39.6906 -95.2892 268° West 395 455 43,000  Level Kansas City Center
Sun 04:36:28 PM 39.6875 -95.4478 269° West 395 455 43,000  Level Kansas City Center
Sun 04:37:30 PM 39.6853 -95.5839 269° West 395 455 43,000  Level Kansas City Center
Sun 04:38:32 PM 39.6811 -95.7450 268° West 397 457 43,000  Level Kansas City Center
Sun 04:39:34 PM 39.6778 -95.8797 268° West 398 458 43,000  Level Kansas City Center
Sun 04:40:36 PM 39.6742 -96.0389 268° West 397 457 43,000  Level Kansas City Center
Sun 04:41:38 PM 39.6703 -96.1756 268° West 397 457 43,000  Level Kansas City Center
Sun 04:43:42 PM 39.6617 -96.4728 268° West 399 459 43,000  Level Kansas City Center
Sun 04:44:44 PM 39.6572 -96.6331 268° West 399 459 43,000  Level Kansas City Center
Sun 04:45:46 PM 39.6531 -96.7703 268° West 398 458 43,000  Level Kansas City Center
Sun 04:46:48 PM 39.6467 -96.9244 267° West 395 455 43,000  Level Kansas City Center
Sun 04:47:50 PM 39.6422 -97.0678 268° West 397 457 43,000  Level Kansas City Center
Sun 04:48:52 PM 39.6364 -97.2019 267° West 395 455 43,000  Level Kansas City Center
Sun 04:49:54 PM 39.6286 -97.3450 266° West 396 456 43,000  Level Kansas City Center
Sun 04:50:56 PM 39.6219 -97.5172 267° West 398 458 43,000  Level Kansas City Center
Sun 04:51:58 PM 39.6158 -97.6614 267° West 399 459 43,000  Level Kansas City Center
Sun 04:53:00 PM 39.6117 -97.8044 268° West 398 458 43,000  Level Kansas City Center
Sun 04:54:02 PM 39.6078 -97.9542 268° West 404 465 43,000  Level Kansas City Center
Sun 04:55:04 PM 39.6014 -98.0975 267° West 402 463 43,000  Level Kansas City Center
Sun 04:56:06 PM 39.5947 -98.2403 267° West 399 459 43,000  Level Kansas City Center
Sun 04:57:08 PM 39.5875 -98.3842 266° West 398 458 43,000  Level Kansas City Center
Sun 04:58:10 PM 39.5814 -98.5319 267° West 405 466 43,000  Level Kansas City Center
Sun 04:59:12 PM 39.5700 -98.7042 265° West 404 465 43,000  Level Kansas City Center
Sun 05:00:17 PM 39.5642 -98.8514 267° West 407 468 43,000  Level Kansas City Center
Sun 05:01:23 PM 39.5569 -99.0258 267° West 408 470 43,000  Level Denver Center
Sun 05:02:25 PM 39.5489 -99.1742 266° West 411 473 43,000  Level Denver Center
Sun 05:03:27 PM 39.5411 -99.3222 266° West 412 474 43,000  Level Denver Center
Sun 05:04:29 PM 39.5325 -99.4703 266° West 412 474 43,000  Level Denver Center
Sun 05:05:31 PM 39.5250 -99.6189 266° West 413 475 43,000  Level Denver Center
Sun 05:06:33 PM 39.5161 -99.7675 266° West 414 476 43,000  Level Denver Center
Sun 05:07:35 PM 39.5056 -99.9469 266° West 415 478 43,000  Level Denver Center
Sun 05:08:37 PM 39.4969 -100.0878 266° West 416 479 43,000  Level Denver Center
Sun 05:09:40 PM 39.4858 -100.2542 265° West 416 479 43,000  Level Denver Center
Sun 05:10:42 PM 39.4767 -100.3964 265° West 414 476 43,000  Level Denver Center
Sun 05:11:44 PM 39.4678 -100.5381 265° West 413 475 43,000  Level Denver Center
Sun 05:12:46 PM 39.4567 -100.7078 265° West 421 484 43,000  Level Denver Center
Sun 05:13:48 PM 39.4472 -100.8519 265° West 420 483 43,000  Level Denver Center
Sun 05:14:50 PM 39.4361 -101.0208 265° West 420 483 43,000  Level Denver Center
Sun 05:15:52 PM 39.4256 -101.1656 265° West 422 486 43,000  Level Denver Center
Sun 05:16:54 PM 39.4158 -101.3328 266° West 419 482 43,000  Level Denver Center
Sun 05:17:56 PM 39.4142 -101.4792 269° West 422 486 43,000  Level Denver Center
Sun 05:18:58 PM 39.4117 -101.6461 269° West 418 481 43,000  Level Denver Center
Sun 05:20:00 PM 39.4083 -101.7900 268° West 418 481 43,000  Level Denver Center
Sun 05:21:02 PM 39.4056 -101.9578 269° West 417 480 43,000  Level Denver Center
Sun 05:22:04 PM 39.4014 -102.1042 268° West 422 486 43,000  Level Denver Center
Sun 05:23:06 PM 39.3983 -102.2497 268° West 422 486 43,000  Level Denver Center
Sun 05:24:08 PM 39.3958 -102.4178 269° West 422 486 43,000  Level Denver Center
Sun 05:25:11 PM 39.3914 -102.5683 268° West 420 483 43,000  Level Denver Center
Sun 05:26:13 PM 39.3872 -102.7206 268° West 425 489 43,000  Level Denver Center
Sun 05:27:15 PM 39.3825 -102.8717 268° West 423 487 43,000  Level Denver Center
Sun 05:28:17 PM 39.3775 -103.0531 268° West 422 486 43,000  Level Denver Center
Sun 05:29:19 PM 39.3722 -103.2047 267° West 423 487 43,000  Level Denver Center
Sun 05:30:21 PM 39.3686 -103.3572 268° West 425 489 43,000  Level Denver Center
Sun 05:31:23 PM 39.3631 -103.5089 267° West 423 487 43,000  Level Denver Center
Sun 05:32:25 PM 39.3581 -103.6611 268° West 423 487 43,000  Level Denver Center
Sun 05:33:27 PM 39.3528 -103.8144 267° West 427 491 43,000  Level Denver Center
Sun 05:34:29 PM 39.3464 -103.9975 267° West 426 490 43,000  Level Denver Center
Sun 05:35:31 PM 39.3403 -104.1519 267° West 432 497 43,000  Level Denver Center
Sun 05:36:33 PM 39.3347 -104.3067 267° West 431 496 43,000  Level Denver Center
Sun 05:37:35 PM 39.3275 -104.4600 267° West 425 489 43,000  Level Denver Center
Sun 05:38:37 PM 39.3211 -104.6164 267° West 432 497 43,000  Level Denver Center
Sun 05:39:39 PM 39.3142 -104.7742 267° West 434 499 43,000  Level Denver Center
Sun 05:40:42 PM 39.3078 -104.9308 267° West 434 499 43,000  Level Denver Center
Sun 05:41:44 PM 39.2997 -105.0881 266° West 435 501 43,000  Level Denver Center
Sun 05:42:46 PM 39.2911 -105.2758 267° West 437 503 43,000  Level Denver Center
Sun 05:43:48 PM 39.2831 -105.4314 266° West 434 499 43,000  Level Denver Center
Sun 05:44:50 PM 39.2769 -105.5867 267° West 433 498 43,000  Level Denver Center
Sun 05:45:52 PM 39.2686 -105.7417 266° West 433 498 43,000  Level Denver Center
Sun 05:46:54 PM 39.2600 -105.8986 266° West 438 504 43,000  Level Denver Center
Sun 05:47:56 PM 39.2517 -106.0522 266° West 432 497 43,000  Level Denver Center
Sun 05:48:58 PM 39.2428 -106.2244 266° West 416 479 43,000  Level Denver Center
Sun 05:50:00 PM 39.2347 -106.3631 266° West 407 468 43,000  Level Denver Center
Sun 05:51:02 PM 39.2244 -106.5292 265° West 414 476 43,000  Level Denver Center
Sun 05:52:04 PM 39.2158 -106.6775 266° West 429 494 43,000  Level Denver Center
Sun 05:53:06 PM 39.2056 -106.8561 266° West 443 510 43,000  Level Denver Center
Sun 05:54:08 PM 39.1953 -107.0108 265° West 450 518 43,000  Level Denver Center
Sun 05:55:10 PM 39.1836 -107.1875 265° West 446 513 43,000  Level Denver Center
Sun 05:56:12 PM 39.1725 -107.3406 265° West 445 512 43,000  Level Denver Center
Sun 05:57:15 PM 39.1597 -107.5175 265° West 444 511 43,000  Level Denver Center
Sun 05:58:17 PM 39.1508 -107.6675 266° West 440 506 43,000  Level Denver Center
Sun 05:59:20 PM 39.1381 -107.8436 265° West 440 506 43,000  Level Denver Center
Sun 06:00:22 PM 39.1281 -107.9939 265° West 439 505 43,000  Level Denver Center
Sun 06:01:24 PM 39.1172 -108.1436 265° West 438 504 43,000  Level Denver Center
Sun 06:02:26 PM 39.1050 -108.3189 265° West 437 503 43,000  Level Denver Center
Sun 06:03:28 PM 39.0903 -108.4722 263° West 445 512 43,000  Level Denver Center
Sun 06:04:30 PM 39.0783 -108.6500 265° West 446 513 43,000  Level Denver Center
Sun 06:05:32 PM 39.0664 -108.8028 264° West 446 513 43,000  Level Denver Center
Sun 06:06:34 PM 39.0525 -108.9811 264° West 448 516 43,000  Level Denver Center
Sun 06:07:36 PM 39.0403 -109.1350 264° West 449 517 43,000  Level Denver Center
Sun 06:08:38 PM 39.0253 -109.3156 264° West 454 522 43,000  Level Denver Center
Sun 06:09:40 PM 39.0117 -109.4717 264° West 457 526 43,000  Level Denver Center
Sun 06:10:42 PM 38.9992 -109.6250 264° West 451 519 43,000  Level Denver Center
Sun 06:11:44 PM 38.9847 -109.8064 264° West 456 525 43,000  Level Denver Center
Sun 06:12:19 PM 38.9744 -109.9092 263° West 455 524 43,000  Level Salt Lake Center
Sun 06:13:21 PM 38.9606 -110.0658 264° West 458 527 43,000  Level Salt Lake Center
Sun 06:14:23 PM 38.9464 -110.2200 263° West 456 525 43,000  Level Salt Lake Center
Sun 06:15:25 PM 38.9297 -110.4033 263° West 460 529 43,000  Level Salt Lake Center
Sun 06:16:27 PM 38.9167 -110.5592 264° West 458 527 43,000  Level Salt Lake Center
Sun 06:17:29 PM 38.8989 -110.7392 263° West 456 525 43,000  Level Salt Lake Center
Sun 06:18:32 PM 38.8828 -110.8933 262° West 455 524 43,000  Level Salt Lake Center
Sun 06:19:33 PM 38.8675 -111.0572 263° West 457 526 43,000  Level Salt Lake Center
Sun 06:20:35 PM 38.8511 -111.2189 263° West 458 527 43,000  Level Salt Lake Center
Sun 06:21:37 PM 38.8350 -111.3817 263° West 461 531 43,000  Level Salt Lake Center
Sun 06:22:39 PM 38.8150 -111.5778 263° West 463 533 43,000  Level Salt Lake Center
Sun 06:23:41 PM 38.7986 -111.7406 263° West 464 534 43,000  Level Salt Lake Center
Sun 06:24:43 PM 38.7814 -111.9033 262° West 463 533 43,000  Level Salt Lake Center
Sun 06:25:45 PM 38.7644 -112.0656 262° West 462 532 43,000  Level Salt Lake Center
Sun 06:26:47 PM 38.7469 -112.2261 262° West 458 527 43,000  Level Salt Lake Center
Sun 06:27:48 PM 38.7250 -112.4214 262° West 463 533 43,000  Level Salt Lake Center
Sun 06:28:50 PM 38.7069 -112.5831 262° West 463 533 43,000  Level Salt Lake Center
Sun 06:29:52 PM 38.6875 -112.7444 261° West 462 532 43,000  Level Salt Lake Center
Sun 06:30:54 PM 38.6697 -112.9058 262° West 461 531 43,000  Level Salt Lake Center
Sun 06:31:56 PM 38.6506 -113.0661 261° West 460 529 43,000  Level Salt Lake Center
Sun 06:32:58 PM 38.6317 -113.2308 262° West 467 537 43,000  Level Salt Lake Center
Sun 06:34:00 PM 38.6089 -113.4217 261° West 458 527 43,000  Level Salt Lake Center
Sun 06:35:02 PM 38.5903 -113.5833 262° West 460 529 43,000  Level Salt Lake Center
Sun 06:36:04 PM 38.5703 -113.7425 261° West 456 525 43,000  Level Salt Lake Center
Sun 06:37:06 PM 38.5511 -113.9017 261° West 457 526 43,000  Level Salt Lake Center
Sun 06:38:08 PM 38.5300 -114.0619 260° West 459 528 43,000  Level Salt Lake Center
Sun 06:39:09 PM 38.5108 -114.2236 261° West 461 531 43,000  Level Salt Lake Center
Sun 06:40:11 PM 38.4850 -114.4158 260° West 460 529 43,000  Level Salt Lake Center
Sun 06:41:13 PM 38.4644 -114.5764 261° West 460 529 43,000  Level Salt Lake Center
Sun 06:42:15 PM 38.4436 -114.7381 261° West 463 533 43,000  Level Salt Lake Center
Sun 06:43:17 PM 38.4214 -114.8972 260° West 459 528 43,000  Level Salt Lake Center
Sun 06:44:18 PM 38.3997 -115.0597 260° West 463 533 43,000  Level Salt Lake Center
Sun 06:45:20 PM 38.3792 -115.2211 261° West 464 534 43,000  Level Salt Lake Center
Sun 06:46:22 PM 38.3522 -115.4111 260° West 467 537 43,000  Level Salt Lake Center
Sun 06:47:23 PM 38.3300 -115.5725 260° West 463 533 43,000  Level Salt Lake Center
Sun 06:48:25 PM 38.3078 -115.7350 260° West 465 535 43,000  Level Salt Lake Center
Sun 06:49:27 PM 38.2836 -115.8964 259° West 465 535 43,000  Level Salt Lake Center
Sun 06:50:29 PM 38.2614 -116.0589 260° West 466 536 43,000  Level Salt Lake Center
Sun 06:51:30 PM 38.2381 -116.2206 260° West 465 535 43,000  Level Salt Lake Center
Sun 06:52:32 PM 38.2142 -116.3822 259° West 466 536 43,000  Level Salt Lake Center
Sun 06:53:34 PM 38.1853 -116.5775 259° West 468 539 43,000  Level Salt Lake Center
Sun 06:54:35 PM 38.1611 -116.7397 259° West 467 537 43,000  Level Salt Lake Center
Sun 06:55:37 PM 38.1369 -116.9019 259° West 468 539 43,000  Level Salt Lake Center
Sun 06:56:23 PM 38.1175 -117.0306 259° West 463 533 43,000  Level Oakland Center
Sun 06:57:25 PM 38.0911 -117.1969 259° West 471 542 43,000  Level Oakland Center
Sun 06:58:27 PM 38.0686 -117.3411 259° West 481 554 43,000  Level Oakland Center
Sun 06:59:28 PM 38.0392 -117.5353 259° West 467 537 43,000  Level Oakland Center
Sun 07:00:30 PM 38.0139 -117.6978 259° West 468 539 43,000  Level Oakland Center
Sun 07:01:32 PM 37.9569 -117.8447 244° Southwest 474 545 43,000  Level Oakland Center
Sun 07:02:33 PM 37.8794 -117.9750 233° Southwest 463 533 43,000 -341 Level Oakland Center
Sun 07:03:35 PM 37.8003 -118.1061 233° Southwest 467 537 42,300 -1,024 Descending Oakland Center
Sun 07:04:36 PM 37.7208 -118.2375 233° Southwest 469 540 40,900 -1,415 Descending Oakland Center
Sun 07:05:38 PM 37.6411 -118.3689 233° Southwest 471 542 39,400 -1,452 Descending Oakland Center
Sun 07:06:40 PM 37.5628 -118.4986 233° Southwest 467 537 37,900 -1,610 Descending Oakland Center
Sun 07:07:41 PM 37.4686 -118.6528 232° Southwest 464 534 36,100 -1,610 Descending Oakland Center
Sun 07:08:43 PM 37.3967 -118.7900 237° Southwest 467 537 34,600 -1,463 Descending Oakland Center
Sun 07:09:44 PM 37.3731 -118.9506 260° West 476 548 33,100 -1,463 Descending Oakland Center
Sun 07:10:46 PM 37.3572 -119.1097 263° West 466 536 31,600 -1,452 Descending Oakland Center
Sun 07:11:48 PM 37.3403 -119.2667 262° West 457 526 30,100 -1,463 Descending Oakland Center
Sun 07:12:49 PM 37.3239 -119.4233 263° West 454 522 28,600 -1,463 Descending Oakland Center
Sun 07:13:51 PM 37.3083 -119.5833 263° West 463 533 27,100 -2,081 Descending Oakland Center
Sun 07:14:53 PM 37.2886 -119.7706 263° West 454 522 24,300 -2,244 Descending Oakland Center
Sun 07:15:54 PM 37.2719 -119.9133 262° West 442 509 22,500 -1,756 Descending Oakland Center
Sun 07:16:56 PM 37.2564 -120.0614 263° West 431 496 20,700 -1,756 Descending Oakland Center
Sun 07:17:57 PM 37.2408 -120.2086 262° West 427 491 18,900 -1,707 Descending Oakland Center
Sun 07:18:59 PM 37.2225 -120.3544 261° West 424 488 17,200 -1,875 Descending Oakland Center
Sun 07:19:33 PM 37.2000 -120.4500 254° West 432 497 15,900 -1,851 Descending Northern Cal TRACON
Sun 07:20:33 PM 37.1833 -120.5833 261° West 420 483 14,300 -1,650 Descending Northern Cal TRACON
Sun 07:21:33 PM 37.1500 -120.7167 253° West 395 455 12,600 -1,500 Descending Northern Cal TRACON
Sun 07:22:33 PM 37.1333 -120.8333 260° West 373 429 11,300 -1,174 Descending Northern Cal TRACON
Sun 07:23:05 PM 37.1228 -120.9097 260° West 367 422 10,800 -839 Descending Oakland Center
Sun 07:24:06 PM 37.1086 -121.0325 262° West 360 414 10,000 -390 Descending Oakland Center
Sun 07:25:08 PM 37.0950 -121.1550 262° West 357 411 10,000  Level Oakland Center
Sun 07:26:09 PM 37.0803 -121.2700 261° West 358 412 10,000  Level Oakland Center
Sun 07:27:11 PM 37.0636 -121.4167 262° West 358 412 10,000 -581 Level Oakland Center
Sun 07:28:13 PM 37.0503 -121.5169 261° West 308 354 8,800 -1,366 Descending Oakland Center
Sun 07:29:14 PM 37.0864 -121.5869 303° West 284 327 7,200 -1,122 Descending Oakland Center
Sun 07:30:16 PM 37.1317 -121.6614 307° West 269 310 6,500 -780 Descending Oakland Center
Sun 07:31:17 PM 37.1811 -121.7372 309° West 256 295 5,600 -927 Descending Oakland Center
Sun 07:32:19 PM 37.2217 -121.7808 319° Northwest 217 250 4,600 -1,220 Descending Oakland Center
Sun 07:33:20 PM 37.2558 -121.8164 320° Northwest 182 209 3,100 -1,268 Descending Oakland Center
Sun 07:34:22 PM 37.2842 -121.8475 319° Northwest 156 180 2,000 -976 Descending Oakland Center
Sun 07:35:23 PM 37.3161 -121.8817 320° Northwest 136 157 1,100 -780 Descending Oakland Center
Sun 07:36:25 PM 37.3417 -121.9078 321° Northwest 126 145 400 -677 Descending Oakland Center
Sun 07:38:00 PM 37.3500 -121.9167 North  Level FlightAware Approximate
Sun 07:45:00 PM 37.3627 -121.9291 North  Level Estimated

Login

Don't have an account? Register now (free) for customized features, flight alerts, and more!